地図

経路データ

SID SEASON NUMBER BASIN SUBBASIN NAME ISO_TIME NATURE LAT LON WMO_WIND WMO_PRES WMO_AGENCY TRACK_TYPE DIST2LAND LANDFALL IFLAG USA_AGENCY USA_ATCF_ID USA_LAT USA_LON USA_RECORD USA_STATUS USA_WIND USA_PRES USA_SSHS USA_R34_NE USA_R34_SE USA_R34_SW USA_R34_NW USA_R50_NE USA_R50_SE USA_R50_SW USA_R50_NW USA_R64_NE USA_R64_SE USA_R64_SW USA_R64_NW USA_POCI USA_ROCI USA_RMW USA_EYE TOKYO_LAT TOKYO_LON TOKYO_GRADE TOKYO_WIND TOKYO_PRES TOKYO_R50_DIR TOKYO_R50_LONG TOKYO_R50_SHORT TOKYO_R30_DIR TOKYO_R30_LONG TOKYO_R30_SHORT TOKYO_LAND CMA_LAT CMA_LON CMA_CAT CMA_WIND CMA_PRES HKO_LAT HKO_LON HKO_CAT HKO_WIND HKO_PRES NEWDELHI_LAT NEWDELHI_LON NEWDELHI_GRADE NEWDELHI_WIND NEWDELHI_PRES NEWDELHI_CI NEWDELHI_DP NEWDELHI_POCI REUNION_LAT REUNION_LON REUNION_TYPE REUNION_WIND REUNION_PRES REUNION_TNUM REUNION_CI REUNION_RMW REUNION_R34_NE REUNION_R34_SE REUNION_R34_SW REUNION_R34_NW REUNION_R50_NE REUNION_R50_SE REUNION_R50_SW REUNION_R50_NW REUNION_R64_NE REUNION_R64_SE REUNION_R64_SW REUNION_R64_NW BOM_LAT BOM_LON BOM_TYPE BOM_WIND BOM_PRES BOM_TNUM BOM_CI BOM_RMW BOM_R34_NE BOM_R34_SE BOM_R34_SW BOM_R34_NW BOM_R50_NE BOM_R50_SE BOM_R50_SW BOM_R50_NW BOM_R64_NE BOM_R64_SE BOM_R64_SW BOM_R64_NW BOM_ROCI BOM_POCI BOM_EYE BOM_POS_METHOD BOM_PRES_METHOD NADI_LAT NADI_LON NADI_CAT NADI_WIND NADI_PRES WELLINGTON_LAT WELLINGTON_LON WELLINGTON_WIND WELLINGTON_PRES DS824_LAT DS824_LON DS824_STAGE DS824_WIND DS824_PRES TD9636_LAT TD9636_LON TD9636_STAGE TD9636_WIND TD9636_PRES TD9635_LAT TD9635_LON TD9635_WIND TD9635_PRES TD9635_ROCI NEUMANN_LAT NEUMANN_LON NEUMANN_CLASS NEUMANN_WIND NEUMANN_PRES MLC_LAT MLC_LON MLC_CLASS MLC_WIND MLC_PRES USA_GUST BOM_GUST BOM_GUST_PER REUNION_GUST REUNION_GUST_PER USA_SEAHGT USA_SEARAD_NE USA_SEARAD_SE USA_SEARAD_SW USA_SEARAD_NW STORM_SPEED STORM_DIR
1958240N15111 1958 72 WP MM NOT_NAMED 1958-08-28 00:00:00 TS 15.0000 111.000 main 207 207 __O___________ -1 15.0000 111.000 0 1002 3 89
1958240N15111 1958 72 WP MM NOT_NAMED 1958-08-28 03:00:00 TS 15.0025 111.142 main 217 217 __P___________ -1 15.0025 111.142 0 1001 3 90
1958240N15111 1958 72 WP MM NOT_NAMED 1958-08-28 06:00:00 TS 15.0000 111.300 main 238 238 __O___________ -1 15.0000 111.300 0 1000 3 92
1958240N15111 1958 72 WP MM NOT_NAMED 1958-08-28 09:00:00 TS 14.9925 111.485 main 260 260 __P___________ -1 14.9925 111.485 0 1000 4 90
1958240N15111 1958 72 WP MM NOT_NAMED 1958-08-28 12:00:00 TS 15.0000 111.700 main 281 281 __O___________ -1 15.0000 111.700 0 1000 4 85
1958240N15111 1958 72 WP MM NOT_NAMED 1958-08-28 15:00:00 TS 15.0350 111.943 main 302 302 __P___________ -1 15.0350 111.943 0 1000 5 78
1958240N15111 1958 72 WP MM NOT_NAMED 1958-08-28 18:00:00 TS 15.1000 112.200 main 336 336 __O___________ -1 15.1000 112.200 0 19 1000 5 72
1958240N15111 1958 72 WP MM NOT_NAMED 1958-08-28 21:00:00 TS 15.1849 112.428 main 359 359 __P___________ -1 15.1849 112.428 0 19 1000 5 68
1958240N15111 1958 72 WP MM NOT_NAMED 1958-08-29 00:00:00 TS 15.3000 112.700 main 392 392 __O___________ -1 15.3000 112.700 0 19 1000 7 69
1958240N15111 1958 72 WP MM NOT_NAMED 1958-08-29 03:00:00 TS 15.4276 113.093 main 436 436 __P___________ -1 15.4276 113.093 0 19 1000 8 69
1958240N15111 1958 72 WP MM NOT_NAMED 1958-08-29 06:00:00 TS 15.6000 113.500 main 478 477 __O___________ -1 15.6000 113.500 0 19 1000 8 59
1958240N15111 1958 72 WP MM NOT_NAMED 1958-08-29 09:00:00 TS 15.8499 113.822 main 485 477 __P___________ -1 15.8499 113.822 0 21 999 8 49
1958240N15111 1958 72 WP MM NOT_NAMED 1958-08-29 12:00:00 TS 16.1000 114.100 main 486 486 __O___________ -1 16.1000 114.100 1 23 999 7 51
1958240N15111 1958 72 WP MM NOT_NAMED 1958-08-29 15:00:00 TS 16.2724 114.358 main 499 499 __P___________ -1 16.2724 114.358 1 23 999 6 58
1958240N15111 1958 72 WP MM NOT_NAMED 1958-08-29 18:00:00 TS 16.4000 114.600 main 510 510 __O___________ -1 16.4000 114.600 1 23 999 5 63
1958240N15111 1958 72 WP MM NOT_NAMED 1958-08-29 21:00:00 TS 16.5074 114.835 main 523 495 __P___________ -1 16.5074 114.835 1 23 999 5 67
1958240N15111 1958 72 WP MM NOT_NAMED 1958-08-30 00:00:00 TS 16.6000 115.100 main 495 465 __O___________ -1 16.6000 115.100 1 23 999 6 72
1958240N15111 1958 72 WP MM NOT_NAMED 1958-08-30 03:00:00 TS 16.6925 115.428 main 465 425 __P___________ -1 16.6925 115.428 1 26 999 7 73
1958240N15111 1958 72 WP MM NOT_NAMED 1958-08-30 06:00:00 TS 16.8000 115.800 main 425 386 __O___________ -1 16.8000 115.800 1 29 999 8 71
1958240N15111 1958 72 WP MM NOT_NAMED 1958-08-30 09:00:00 TS 16.9425 116.193 main 386 352 __P___________ -1 16.9425 116.193 1 29 999 8 69
1958240N15111 1958 72 WP MM NOT_NAMED 1958-08-30 12:00:00 TS 17.1000 116.600 main 352 314 __O___________ -1 17.1000 116.600 1 29 999 8 70
1958240N15111 1958 72 WP MM NOT_NAMED 1958-08-30 15:00:00 TS 17.2275 117.015 main 314 283 __P___________ -1 17.2275 117.015 1 29 999 8 69
1958240N15111 1958 72 WP MM NOT_NAMED 1958-08-30 18:00:00 TS 17.4000 117.400 main 283 257 __O___________ -1 17.4000 117.400 1 29 999 8 63
1958240N15111 1958 72 WP MM NOT_NAMED 1958-08-30 21:00:00 TS 17.5950 117.767 main 257 244 __P___________ -1 17.5950 117.767 1 29 999 8 44
1958240N15111 1958 72 WP MM NOT_NAMED 1958-08-31 00:00:00 TS 18.0000 118.000 main 247 247 __O___________ -1 18.0000 118.000 1 29 999 13 12
1958240N15111 1958 72 WP MM NOT_NAMED 1958-08-31 03:00:00 TS 18.8123 118.047 main 275 275 __P___________ -1 18.8123 118.047 1 29 998 17 357
1958240N15111 1958 72 WP MM NOT_NAMED 1958-08-31 06:00:00 TS 19.7000 117.900 main 318 312 __O___________ -1 19.7000 117.900 1 29 998 16 344
1958240N15111 1958 72 WP MM NOT_NAMED 1958-08-31 09:00:00 TS 20.3251 117.595 main 312 245 __P___________ -1 20.3251 117.595 1 29 998 13 329
1958240N15111 1958 72 WP MM NOT_NAMED 1958-08-31 12:00:00 TS 20.8000 117.200 main 245 194 __O___________ -1 20.8000 117.200 1 29 998 11 321
1958240N15111 1958 72 WP MM NOT_NAMED 1958-08-31 15:00:00 TS 21.2175 116.835 main 192 151 __P___________ -1 21.2175 116.835 1 29 997 10 317
1958240N15111 1958 72 WP MM NOT_NAMED 1958-08-31 18:00:00 TS 21.5000 116.500 main 151 133 __O___________ -1 21.5000 116.500 1 29 996 7 308
1958240N15111 1958 72 WP MM NOT_NAMED 1958-08-31 21:00:00 TS 21.6448 116.250 main 129 113 __P___________ -1 21.6448 116.250 1 29 995 5 293
1958240N15111 1958 72 WP MM NOT_NAMED 1958-09-01 00:00:00 TS 21.7000 116.000 main 113 111 __O___________ -1 21.7000 116.000 1 29 994 6 281
1958240N15111 1958 72 WP MM NOT_NAMED 1958-09-01 03:00:00 TS 21.7500 115.665 main 101 88 __P___________ -1 21.7500 115.665 1 33 994 7 279
1958240N15111 1958 72 WP MM NOT_NAMED 1958-09-01 06:00:00 TS 21.8000 115.300 main 88 67 __O___________ -1 21.8000 115.300 2 38 994 7 282
1958240N15111 1958 72 WP MM NOT_NAMED 1958-09-01 09:00:00 TS 21.8924 114.950 main 67 45 __P___________ -1 21.8924 114.950 2 38 994 7 287
1958240N15111 1958 72 WP MM NOT_NAMED 1958-09-01 12:00:00 TS 22.0000 114.600 main 45 22 __O___________ -1 22.0000 114.600 2 38 994 7 289
1958240N15111 1958 72 WP MM NOT_NAMED 1958-09-01 15:00:00 TS 22.1074 114.257 main 22 22 __P___________ -1 22.1074 114.257 2 33 994 7 287
1958240N15111 1958 72 WP MM NOT_NAMED 1958-09-01 18:00:00 TS 22.2000 113.900 main 22 10 __O___________ -1 22.2000 113.900 1 29 994 7 283
1958240N15111 1958 72 WP MM NOT_NAMED 1958-09-01 21:00:00 TS 22.2573 113.530 main 0 0 __P___________ -1 22.2573 113.530 1 29 995 7 278
1958240N15111 1958 72 WP MM NOT_NAMED 1958-09-02 00:00:00 TS 22.3000 113.100 main 0 0 __O___________ -1 22.3000 113.100 1 29 997 9 276
1958240N15111 1958 72 WP MM NOT_NAMED 1958-09-02 03:00:00 TS 22.3500 112.572 main 0 0 __P___________ -1 22.3500 112.572 1 23 998 10 276
1958240N15111 1958 72 WP MM NOT_NAMED 1958-09-02 06:00:00 TS 22.4000 112.000 main 0 0 __O___________ -1 22.4000 112.000 0 17 1000 10 276
1958240N15111 1958 72 WP MM NOT_NAMED 1958-09-02 09:00:00 TS 22.4573 111.450 main 0 0 __P___________ -1 22.4573 111.450 0 17 1000 10 276
1958240N15111 1958 72 WP MM NOT_NAMED 1958-09-02 12:00:00 TS 22.5000 110.900 main 0 0 __O___________ -1 22.5000 110.900 0 17 1000 10 273
1958240N15111 1958 72 WP MM NOT_NAMED 1958-09-02 15:00:00 TS 22.5075 110.335 main 0 0 __P___________ -1 22.5075 110.335 0 17 1000 10 270
1958240N15111 1958 72 WP MM NOT_NAMED 1958-09-02 18:00:00 TS 22.5000 109.800 main 0 0 __O___________ -1 22.5000 109.800 0 17 1000 9 268
1958240N15111 1958 72 WP MM NOT_NAMED 1958-09-02 21:00:00 TS 22.4772 109.342 main 0 0 __P___________ -1 22.4772 109.342 0 17 1000 8 270
1958240N15111 1958 72 WP MM NOT_NAMED 1958-09-03 00:00:00 TS 22.5000 108.900 main 0 0 __O___________ -1 22.5000 108.900 0 17 1000 9 280
1958240N15111 1958 72 WP MM NOT_NAMED 1958-09-03 03:00:00 TS 22.6204 108.415 main 0 0 __P___________ -1 22.6204 108.415 0 17 1002 10 288
1958240N15111 1958 72 WP MM NOT_NAMED 1958-09-03 06:00:00 TS 22.8000 107.900 main 0 __O___________ -1 22.8000 107.900 0 17 1004 10 291

デジタル台風データ・検索

IBTrACS Databaseについて

本データベースは、米国NOAAが公開する1842年以降の世界の熱帯低気圧のベストトラックデータアーカイブInternational Best Track Archive for Climate Stewardship (IBTrACS)を、ウェブで閲覧しやすい形式に変換したものです。

最終更新日:2021-12-03